Time;durP1;ratioP1;P1;durP2;ratioP2;P2;SDS_P1;SDS_P2;PMS_P1;PMS_P2;Temp;Humidity;BMP_temperature;BMP_pressure;BME280_temperature;BME280_humidity;BME280_pressure;Samples;Min_cycle;Max_cycle;Signal;HPM_P1;HPM_P2
2023/09/02 00:00:34;;;;;;;0.50;0.50;;;;;;;17.18;91.26;95642.78;4319507;32;20201;-64
2023/09/02 00:03:00;;;;;;;0.90;0.90;;;;;;;17.23;90.96;95644.50;4317690;32;20193;-65
2023/09/02 00:05:25;;;;;;;0.50;0.50;;;;;;;17.18;91.21;95648.16;4330837;32;20209;-65
2023/09/02 00:07:50;;;;;;;0.97;0.97;;;;;;;17.27;90.99;95649.97;4329217;32;20256;-65
2023/09/02 00:10:16;;;;;;;0.60;0.60;;;;;;;17.22;91.06;95647.50;4331000;32;20177;-65
2023/09/02 00:12:41;;;;;;;0.87;0.87;;;;;;;17.13;91.44;95653.69;4330099;32;20197;-65
2023/09/02 00:15:07;;;;;;;1.10;1.00;;;;;;;17.20;90.77;95647.81;4326427;32;20232;-65
2023/09/02 00:17:35;;;;;;;0.57;0.57;;;;;;;17.29;90.41;95661.16;4331402;32;20182;-64
2023/09/02 00:20:00;;;;;;;0.67;0.67;;;;;;;17.30;90.25;95654.69;4329561;32;20260;-65
2023/09/02 00:22:25;;;;;;;0.53;0.53;;;;;;;17.33;90.30;95654.03;4329607;32;20174;-65
2023/09/02 00:24:50;;;;;;;0.50;0.50;;;;;;;17.23;90.67;95654.44;4331230;32;20211;-65
2023/09/02 00:27:16;;;;;;;0.43;0.43;;;;;;;17.24;90.55;95656.00;4329629;32;20191;-65
2023/09/02 00:29:41;;;;;;;0.70;0.70;;;;;;;17.20;90.59;95655.87;4329244;32;20253;-65
2023/09/02 00:32:06;;;;;;;0.20;0.20;;;;;;;17.09;91.34;95666.19;4328728;32;20205;-65
2023/09/02 00:34:32;;;;;;;0.30;0.30;;;;;;;17.06;91.85;95658.78;4322673;32;20200;-65
2023/09/02 00:36:57;;;;;;;0.97;0.97;;;;;;;16.98;92.57;95662.31;4329678;32;21917;-65
2023/09/02 00:39:22;;;;;;;1.03;0.77;;;;;;;17.02;92.66;95665.16;4320101;32;20248;-64
2023/09/02 00:41:51;;;;;;;0.87;0.87;;;;;;;17.03;92.57;95667.50;4322234;32;20319;-65
2023/09/02 00:44:17;;;;;;;0.57;0.57;;;;;;;17.02;92.54;95668.59;4326752;32;20269;-64
2023/09/02 00:46:42;;;;;;;0.60;0.60;;;;;;;17.16;92.02;95671.03;4325755;32;20193;-65
2023/09/02 00:49:08;;;;;;;0.60;0.60;;;;;;;17.15;92.05;95667.56;4334947;32;20185;-65
2023/09/02 00:51:33;;;;;;;5.63;1.07;;;;;;;17.15;92.27;95662.19;4334238;32;20190;-65
2023/09/02 00:53:58;;;;;;;0.97;0.97;;;;;;;17.18;91.69;95674.97;4331931;32;20205;-65
2023/09/02 00:56:25;;;;;;;1.00;0.93;;;;;;;17.19;91.75;95667.69;4333395;32;20240;-65
2023/09/02 00:58:56;;;;;;;1.13;0.70;;;;;;;17.13;92.06;95669.78;4319366;32;20227;-65
2023/09/02 01:01:21;;;;;;;0.93;0.93;;;;;;;16.99;92.79;95665.78;4333282;32;20216;-65
2023/09/02 01:03:47;;;;;;;0.73;0.73;;;;;;;17.08;92.37;95667.28;4329718;32;20212;-65
2023/09/02 01:06:13;;;;;;;0.50;0.50;;;;;;;17.03;92.65;95670.19;4332486;32;20221;-65
2023/09/02 01:08:38;;;;;;;0.73;0.73;;;;;;;17.01;93.16;95675.09;4333019;32;20192;-65
2023/09/02 01:11:04;;;;;;;1.43;0.63;;;;;;;17.03;93.33;95666.72;4334542;32;20190;-65
2023/09/02 01:13:30;;;;;;;0.90;0.50;;;;;;;17.09;92.90;95676.12;4332638;32;20181;-65
2023/09/02 01:15:56;;;;;;;0.50;0.50;;;;;;;17.01;93.09;95664.34;4333690;32;20197;-65
2023/09/02 01:18:22;;;;;;;1.03;0.97;;;;;;;17.03;92.88;95675.53;4333370;32;20197;-65
2023/09/02 01:21:12;;;;;;;0.50;0.50;;;;;;;17.07;92.81;95672.97;4333437;32;20194;-65
2023/09/02 01:23:51;;;;;;;0.50;0.50;;;;;;;17.08;92.88;95683.38;4333581;32;20212;-65
2023/09/02 01:26:54;;;;;;;0.63;0.63;;;;;;;17.11;92.48;95672.00;4314700;32;20216;-65
2023/09/02 01:29:23;;;;;;;1.40;1.30;;;;;;;17.08;92.60;95680.69;4333052;32;20188;-64
2023/09/02 01:31:49;;;;;;;1.00;0.53;;;;;;;17.08;92.57;95682.59;4332413;32;20181;-65
2023/09/02 01:34:18;;;;;;;0.50;0.50;;;;;;;17.01;93.04;95680.44;4332928;32;20240;-65
2023/09/02 01:36:46;;;;;;;0.73;0.73;;;;;;;17.05;92.89;95683.22;4319611;32;20221;-65
2023/09/02 01:39:14;;;;;;;0.77;0.77;;;;;;;17.03;92.56;95683.59;4332368;32;20189;-65
2023/09/02 01:41:41;;;;;;;1.10;0.73;;;;;;;17.06;92.69;95682.91;4319045;32;20248;-66
2023/09/02 01:44:07;;;;;;;0.93;0.93;;;;;;;17.07;92.37;95679.13;4333425;32;20208;-65
2023/09/02 01:46:33;;;;;;;0.73;0.73;;;;;;;16.95;92.81;95676.38;4330586;32;20182;-65
2023/09/02 01:48:59;;;;;;;0.50;0.37;;;;;;;17.04;92.39;95681.69;4331449;32;20311;-65
2023/09/02 01:51:26;;;;;;;0.70;0.70;;;;;;;17.07;92.08;95681.81;4319085;32;20292;-65
2023/09/02 01:53:51;;;;;;;0.43;0.43;;;;;;;17.07;92.03;95676.44;4332702;32;20201;-65
2023/09/02 01:56:17;;;;;;;0.50;0.50;;;;;;;17.03;92.36;95677.44;4319313;32;20208;-65
2023/09/02 01:58:42;;;;;;;0.50;0.50;;;;;;;17.05;92.21;95678.66;4318008;32;20232;-65
2023/09/02 02:01:08;;;;;;;0.43;0.43;;;;;;;16.92;92.96;95687.75;4332849;32;20185;-65
2023/09/02 02:03:42;;;;;;;0.47;0.47;;;;;;;16.96;92.56;95687.87;4319631;32;20174;-65
2023/09/02 02:06:11;;;;;;;0.70;0.70;;;;;;;17.00;92.21;95688.81;4332438;32;20177;-65
2023/09/02 02:09:02;;;;;;;0.60;0.60;;;;;;;16.85;92.96;95679.41;4331634;32;20195;-65
2023/09/02 02:11:29;;;;;;;1.60;0.87;;;;;;;16.78;93.38;95681.84;4332469;32;20233;-65
2023/09/02 02:14:01;;;;;;;1.03;1.03;;;;;;;16.87;92.88;95679.09;4332346;32;20178;-65
2023/09/02 02:16:26;;;;;;;1.23;1.03;;;;;;;16.75;93.10;95682.47;4331154;32;20232;-66
2023/09/02 02:18:52;;;;;;;0.33;0.33;;;;;;;16.72;93.74;95688.47;4332190;32;20174;-65
2023/09/02 02:21:17;;;;;;;0.57;0.53;;;;;;;16.82;92.92;95680.09;4332233;32;20221;-65
2023/09/02 02:23:42;;;;;;;0.80;0.80;;;;;;;16.85;92.69;95690.12;4331343;32;20218;-65
2023/09/02 02:26:08;;;;;;;1.03;0.60;;;;;;;16.78;93.14;95684.50;4334276;32;20197;-66
2023/09/02 02:28:33;;;;;;;0.70;0.53;;;;;;;16.83;92.90;95689.69;4332005;32;20196;-65
2023/09/02 02:30:59;;;;;;;0.60;0.60;;;;;;;16.83;92.69;95678.97;4332436;32;20265;-65
2023/09/02 02:33:25;;;;;;;0.57;0.57;;;;;;;16.81;92.79;95687.34;4332374;32;20297;-65
2023/09/02 02:35:50;;;;;;;0.53;0.53;;;;;;;16.79;92.86;95688.75;4331320;32;20240;-65
2023/09/02 02:38:16;;;;;;;0.83;0.70;;;;;;;16.79;92.84;95688.75;4331018;32;20177;-65
2023/09/02 02:40:41;;;;;;;0.80;0.80;;;;;;;16.72;93.29;95688.47;4330413;32;20173;-65
2023/09/02 02:43:06;;;;;;;1.17;1.13;;;;;;;16.64;93.42;95687.41;4331135;32;20234;-65
2023/09/02 02:45:32;;;;;;;0.57;0.57;;;;;;;16.58;94.01;95682.53;4331441;32;20186;-65
2023/09/02 02:47:57;;;;;;;0.73;0.73;;;;;;;16.57;94.18;95680.97;4331370;32;20245;-65
2023/09/02 02:50:23;;;;;;;0.50;0.50;;;;;;;16.51;94.57;95688.38;4341041;32;20204;-65
2023/09/02 02:52:49;;;;;;;1.20;1.10;;;;;;;16.67;93.43;95685.97;4330501;32;20205;-66
2023/09/02 02:55:15;;;;;;;0.50;0.50;;;;;;;16.69;93.00;95686.44;4329818;32;20174;-65
2023/09/02 02:57:40;;;;;;;1.00;1.00;;;;;;;16.63;93.12;95682.31;4329086;32;20312;-66
2023/09/02 03:00:08;;;;;;;0.53;0.53;;;;;;;16.62;93.27;95681.56;4333128;32;20237;-65
2023/09/02 03:02:34;;;;;;;2.30;1.10;;;;;;;16.60;93.29;95683.00;4327264;32;20232;-65
2023/09/02 03:04:59;;;;;;;0.63;0.63;;;;;;;16.59;93.50;95686.78;4329764;32;20265;-66
2023/09/02 03:07:24;;;;;;;1.80;1.07;;;;;;;16.60;93.35;95685.69;4335791;32;20186;-65
2023/09/02 03:09:50;;;;;;;0.60;0.60;;;;;;;16.53;93.66;95682.69;4330577;32;20193;-65
2023/09/02 03:12:15;;;;;;;0.30;0.30;;;;;;;16.54;93.46;95676.25;4330922;32;20174;-65
2023/09/02 03:14:42;;;;;;;0.37;0.37;;;;;;;16.62;93.32;95683.47;4327924;32;20190;-65
2023/09/02 03:17:07;;;;;;;0.50;0.50;;;;;;;16.61;93.61;95687.25;4329448;32;20182;-65
2023/09/02 03:19:32;;;;;;;0.70;0.70;;;;;;;16.61;93.50;95687.25;4327322;32;20178;-65
2023/09/02 03:21:58;;;;;;;0.47;0.47;;;;;;;16.67;92.79;95688.66;4317375;32;20269;-65
2023/09/02 03:24:23;;;;;;;1.90;0.83;;;;;;;16.50;93.39;95692.16;4331649;32;20229;-65
2023/09/02 03:26:48;;;;;;;0.57;0.57;;;;;;;16.52;93.81;95692.63;4330837;32;20186;-65
2023/09/02 03:29:14;;;;;;;0.20;0.20;;;;;;;16.47;94.01;95696.25;4330920;32;20199;-64
2023/09/02 03:31:39;;;;;;;0.70;0.70;;;;;;;16.52;93.73;95699.88;4330209;32;20249;-65
2023/09/02 03:34:04;;;;;;;0.60;0.60;;;;;;;16.47;93.83;95692.81;4330401;32;20224;-66
2023/09/02 03:36:30;;;;;;;0.40;0.40;;;;;;;16.37;93.94;95693.97;4329245;32;20173;-65
2023/09/02 03:38:55;;;;;;;0.50;0.50;;;;;;;16.45;93.86;95695.81;4330684;32;20186;-65
2023/09/02 03:41:23;;;;;;;1.07;0.93;;;;;;;16.34;94.31;95693.81;4326767;32;20183;-65
2023/09/02 03:43:48;;;;;;;0.13;0.13;;;;;;;16.33;94.23;95706.41;4326614;32;20200;-65
2023/09/02 03:46:14;;;;;;;0.50;0.50;;;;;;;16.42;93.60;95699.12;4331171;32;20209;-65
2023/09/02 03:48:39;;;;;;;1.00;0.87;;;;;;;16.41;93.65;95702.13;4327619;32;20273;-65
2023/09/02 03:51:11;;;;;;;0.50;0.50;;;;;;;16.27;94.34;95696.97;4328160;32;20217;-66
2023/09/02 03:53:37;;;;;;;0.57;0.57;;;;;;;16.29;94.08;95692.09;4330134;32;20233;-65
2023/09/02 03:56:03;;;;;;;0.50;0.50;;;;;;;16.40;93.68;95692.53;4331286;32;20177;-66
2023/09/02 03:58:29;;;;;;;4.30;0.43;;;;;;;16.35;93.38;95690.81;4327084;32;20277;-65
2023/09/02 04:00:55;;;;;;;0.40;0.40;;;;;;;16.36;93.27;95700.41;4330032;32;20182;-65
2023/09/02 04:03:21;;;;;;;0.83;0.83;;;;;;;16.14;94.12;95695.28;4330337;32;20185;-65
2023/09/02 04:05:50;;;;;;;1.27;0.70;;;;;;;16.12;94.23;95697.50;4329427;32;20193;-65
2023/09/02 04:08:18;;;;;;;0.40;0.40;;;;;;;16.15;94.30;95702.22;4330779;32;20190;-65
2023/09/02 04:10:43;;;;;;;0.33;0.33;;;;;;;16.27;93.61;95699.66;4329715;32;20193;-65
2023/09/02 04:13:08;;;;;;;0.60;0.60;;;;;;;16.25;93.54;95704.53;4331205;32;20178;-66
2023/09/02 04:15:34;;;;;;;0.63;0.63;;;;;;;16.27;93.19;95705.00;4319778;33;20223;-65
2023/09/02 04:17:59;;;;;;;6.97;1.00;;;;;;;16.35;92.76;95706.09;4330841;32;20192;-65
2023/09/02 04:20:24;;;;;;;0.67;0.67;;;;;;;16.23;93.27;95709.41;4330090;32;20182;-65
2023/09/02 04:22:50;;;;;;;2.30;1.30;;;;;;;16.05;93.84;95711.34;4326527;32;20201;-65
2023/09/02 04:25:16;;;;;;;0.30;0.30;;;;;;;16.08;93.99;95710.72;4310131;32;20185;-66
2023/09/02 04:27:41;;;;;;;0.40;0.40;;;;;;;16.18;93.66;95711.50;4327316;32;20181;-65
2023/09/02 04:30:07;;;;;;;0.47;0.47;;;;;;;16.15;93.66;95716.38;4331647;33;20200;-65
2023/09/02 04:32:32;;;;;;;0.70;0.70;;;;;;;16.16;94.01;95725.19;4329111;32;20262;-65
2023/09/02 04:34:57;;;;;;;0.53;0.53;;;;;;;16.15;93.72;95723.63;4331015;32;20182;-65
2023/09/02 04:37:23;;;;;;;0.70;0.70;;;;;;;16.17;93.44;95726.00;4317664;32;20186;-65
2023/09/02 04:39:48;;;;;;;0.40;0.40;;;;;;;16.24;93.33;95718.22;4331065;32;20217;-65
2023/09/02 04:42:13;;;;;;;0.93;0.93;;;;;;;16.09;93.76;95723.00;4331051;32;20245;-65
2023/09/02 04:44:39;;;;;;;0.57;0.57;;;;;;;16.13;93.76;95731.19;4328958;32;20185;-65
2023/09/02 04:47:06;;;;;;;0.60;0.60;;;;;;;16.26;93.08;95724.06;4330998;32;20194;-65
2023/09/02 04:49:32;;;;;;;0.57;0.37;;;;;;;16.27;92.92;95731.78;4324141;32;20218;-65
2023/09/02 04:51:57;;;;;;;0.53;0.53;;;;;;;16.30;92.87;95728.47;4330581;32;20204;-65
2023/09/02 04:54:23;;;;;;;0.50;0.50;;;;;;;16.13;93.80;95729.31;4330078;32;20181;-65
2023/09/02 04:56:49;;;;;;;0.77;0.77;;;;;;;16.11;94.13;95734.19;4328957;32;20200;-65
2023/09/02 04:59:14;;;;;;;0.80;0.80;;;;;;;16.22;93.45;95736.50;4329357;32;20216;-65
2023/09/02 05:01:40;;;;;;;0.87;0.87;;;;;;;16.23;93.27;95738.09;4330491;32;20200;-65
2023/09/02 05:04:05;;;;;;;0.57;0.57;;;;;;;16.21;93.40;95727.69;4330732;32;20174;-65
2023/09/02 05:06:30;;;;;;;1.87;0.87;;;;;;;16.07;94.21;95738.59;4330354;32;20189;-65
2023/09/02 05:08:56;;;;;;;0.50;0.50;;;;;;;16.10;93.96;95735.28;4328713;32;20213;-65
2023/09/02 05:11:21;;;;;;;1.00;1.00;;;;;;;16.05;94.22;95745.34;4330476;32;20309;-65
2023/09/02 05:13:48;;;;;;;0.97;0.97;;;;;;;16.15;93.91;95739.69;4330627;32;20228;-65
2023/09/02 05:16:13;;;;;;;0.80;0.77;;;;;;;16.23;93.72;95735.41;4329199;32;20182;-65
2023/09/02 05:18:39;;;;;;;0.67;0.60;;;;;;;16.32;93.25;95739.66;4317124;32;20205;-65
2023/09/02 05:21:04;;;;;;;0.67;0.67;;;;;;;16.22;93.48;95741.88;4332225;32;20193;-66
2023/09/02 05:23:29;;;;;;;0.63;0.63;;;;;;;16.30;93.53;95746.41;4330445;32;20312;-66
2023/09/02 05:25:56;;;;;;;1.77;0.70;;;;;;;16.28;93.40;95744.06;4330905;32;20185;-65
2023/09/02 05:28:23;;;;;;;0.30;0.30;;;;;;;16.31;93.38;95745.31;4325793;32;20196;-65
2023/09/02 05:30:48;;;;;;;1.80;0.90;;;;;;;16.37;93.38;95744.84;4323277;32;20227;-65
2023/09/02 05:33:14;;;;;;;0.30;0.30;;;;;;;16.37;93.63;95758.22;4329795;32;20244;-66
2023/09/02 05:35:39;;;;;;;1.50;0.83;;;;;;;16.39;93.55;95750.66;4330327;32;20182;-65
2023/09/02 05:38:06;;;;;;;0.83;0.83;;;;;;;16.38;93.62;95759.81;4335389;32;20212;-65
2023/09/02 05:40:31;;;;;;;0.60;0.60;;;;;;;16.39;93.57;95753.34;4333045;32;20190;-66
2023/09/02 05:42:56;;;;;;;0.30;0.30;;;;;;;16.34;93.90;95753.50;4319315;32;20224;-65
2023/09/02 05:45:22;;;;;;;1.73;1.17;;;;;;;16.49;93.54;95754.87;4331645;32;20190;-66
2023/09/02 05:47:48;;;;;;;0.63;0.63;;;;;;;16.39;93.97;95757.91;4329112;32;20236;-65
2023/09/02 05:50:13;;;;;;;0.40;0.40;;;;;;;16.39;94.17;95758.69;4329459;32;20189;-65
2023/09/02 05:52:40;;;;;;;0.40;0.40;;;;;;;16.46;93.50;95756.28;4332082;32;20193;-66
2023/09/02 05:55:06;;;;;;;0.80;0.70;;;;;;;16.52;93.41;95758.81;4333758;32;20288;-65
2023/09/02 05:57:32;;;;;;;1.20;0.87;;;;;;;16.56;93.10;95759.75;4332651;32;20240;-65
2023/09/02 05:59:57;;;;;;;1.13;1.13;;;;;;;16.59;93.02;95761.78;4331465;32;20237;-65
2023/09/02 06:02:23;;;;;;;0.80;0.77;;;;;;;16.58;93.18;95769.03;4331018;32;20240;-65
2023/09/02 06:04:48;;;;;;;0.40;0.40;;;;;;;16.59;93.15;95767.16;4319252;32;20254;-66
2023/09/02 06:07:13;;;;;;;0.47;0.47;;;;;;;16.67;92.84;95772.50;4332107;32;20234;-65
2023/09/02 06:09:39;;;;;;;0.60;0.50;;;;;;;16.76;92.46;95773.25;4328912;32;20194;-66
2023/09/02 06:12:04;;;;;;;1.60;0.93;;;;;;;16.69;92.92;95775.62;4318200;32;20249;-65
2023/09/02 06:14:29;;;;;;;0.77;0.77;;;;;;;16.69;93.21;95780.22;4331654;32;20173;-65
2023/09/02 06:16:55;;;;;;;1.20;1.00;;;;;;;16.69;93.43;95774.84;4332801;32;20269;-65
2023/09/02 06:19:20;;;;;;;0.87;0.80;;;;;;;16.66;93.76;95772.81;4331364;32;20248;-65
2023/09/02 06:21:45;;;;;;;0.80;0.80;;;;;;;16.70;93.65;95776.44;4331154;32;20189;-65
2023/09/02 06:24:11;;;;;;;3.60;0.60;;;;;;;16.73;94.02;95775.78;4332252;32;20186;-66
2023/09/02 06:26:36;;;;;;;0.40;0.40;;;;;;;16.80;93.93;95773.41;4332594;32;20200;-65
2023/09/02 06:29:01;;;;;;;0.63;0.63;;;;;;;16.83;93.98;95776.22;4331743;32;20224;-65
2023/09/02 06:31:27;;;;;;;0.20;0.20;;;;;;;16.89;93.95;95782.19;4332363;32;20268;-65
2023/09/02 06:33:52;;;;;;;0.80;0.80;;;;;;;16.91;94.08;95779.97;4331849;32;20224;-65
2023/09/02 06:36:19;;;;;;;0.70;0.70;;;;;;;16.94;93.97;95778.53;4318566;32;20185;-65
2023/09/02 06:38:45;;;;;;;1.23;0.97;;;;;;;16.93;94.34;95774.28;4332112;32;20239;-65
2023/09/02 06:41:12;;;;;;;0.63;0.63;;;;;;;17.01;93.94;95774.25;4332176;32;20177;-65
2023/09/02 06:43:38;;;;;;;0.73;0.73;;;;;;;17.05;93.95;95769.81;4333940;32;20178;-65
2023/09/02 06:46:18;;;;;;;0.73;0.60;;;;;;;17.11;94.01;95781.13;4318703;32;20198;-65
2023/09/02 06:48:44;;;;;;;0.60;0.60;;;;;;;17.16;94.05;95779.06;4326482;33;20189;-65
2023/09/02 06:51:09;;;;;;;0.40;0.40;;;;;;;17.25;93.78;95780.94;4330118;32;20244;-65
2023/09/02 06:53:35;;;;;;;0.60;0.60;;;;;;;17.32;93.96;95791.91;4333756;32;20224;-65
2023/09/02 06:56:01;;;;;;;1.03;1.03;;;;;;;17.41;92.75;95784.63;4330809;32;20185;-65
2023/09/02 06:58:26;;;;;;;0.80;0.80;;;;;;;17.45;92.75;95791.69;4331813;32;20247;-65
2023/09/02 07:00:51;;;;;;;1.90;0.70;;;;;;;17.50;92.54;95793.37;4330418;32;20209;-65
2023/09/02 07:03:17;;;;;;;0.90;0.90;;;;;;;17.53;92.71;95793.53;4331772;32;20203;-65
2023/09/02 07:05:42;;;;;;;2.27;1.10;;;;;;;17.63;92.48;95797.72;4329098;32;20208;-64
2023/09/02 07:08:07;;;;;;;2.60;2.40;;;;;;;17.63;92.91;95805.78;4335305;32;20204;-65
2023/09/02 07:10:33;;;;;;;19.50;6.77;;;;;;;17.72;91.64;95806.53;4327923;32;20196;-65
2023/09/02 07:12:58;;;;;;;12.80;10.13;;;;;;;17.79;90.81;95796.06;4328447;32;20316;-65
2023/09/02 07:15:23;;;;;;;22.23;10.60;;;;;;;17.85;90.95;95800.13;4330047;32;20221;-65
2023/09/02 07:17:49;;;;;;;3.73;3.43;;;;;;;17.87;90.99;95797.12;4330255;32;20257;-65
2023/09/02 07:20:14;;;;;;;5.93;5.47;;;;;;;17.91;90.88;95797.22;4328180;32;20259;-65
2023/09/02 07:22:39;;;;;;;30.20;21.87;;;;;;;17.97;90.60;95793.25;4323481;32;20246;-65
2023/09/02 07:25:08;;;;;;;13.13;10.57;;;;;;;18.00;89.49;95790.69;4329632;32;20186;-65
2023/09/02 07:27:33;;;;;;;31.17;18.17;;;;;;;18.11;89.01;95793.75;4329395;32;20190;-65
2023/09/02 07:29:59;;;;;;;8.13;6.73;;;;;;;18.18;88.50;95794.00;4331526;32;20259;-65
2023/09/02 07:32:25;;;;;;;2.13;1.97;;;;;;;18.20;88.98;95795.25;4331180;32;20217;-65
2023/09/02 07:34:50;;;;;;;5.10;4.70;;;;;;;18.28;87.99;95803.56;4331710;32;20212;-65
2023/09/02 07:37:16;;;;;;;3.33;3.03;;;;;;;18.37;87.42;95797.00;4331245;32;20177;-65
2023/09/02 07:39:41;;;;;;;7.93;7.17;;;;;;;18.43;87.45;95808.31;4328010;32;20257;-65
2023/09/02 07:42:06;;;;;;;9.43;8.70;;;;;;;18.46;87.27;95800.38;4333135;32;20255;-65
2023/09/02 07:44:32;;;;;;;2.33;2.23;;;;;;;18.53;86.81;95803.31;4331141;32;20186;-65
2023/09/02 07:46:57;;;;;;;1.67;1.57;;;;;;;18.59;86.37;95805.78;4317332;32;20208;-65
2023/09/02 07:49:22;;;;;;;1.93;1.33;;;;;;;18.63;85.89;95812.09;4325179;32;20255;-65
2023/09/02 07:51:48;;;;;;;0.57;0.57;;;;;;;18.70;85.04;95812.34;4329812;32;20241;-65
2023/09/02 07:54:14;;;;;;;1.67;1.47;;;;;;;18.74;83.85;95807.84;4329887;32;20196;-65
2023/09/02 07:56:40;;;;;;;1.57;0.67;;;;;;;18.78;84.06;95811.47;4329135;32;20173;-65
2023/09/02 07:59:06;;;;;;;0.80;0.80;;;;;;;18.83;83.96;95816.63;4329242;32;20256;-65
2023/09/02 08:01:31;;;;;;;0.63;0.63;;;;;;;18.93;83.64;95816.19;4328850;32;20170;-65
2023/09/02 08:03:57;;;;;;;0.80;0.80;;;;;;;18.93;82.90;95813.50;4329124;32;20217;-65
2023/09/02 08:06:22;;;;;;;0.93;0.93;;;;;;;18.99;82.88;95808.69;4330751;32;20189;-65
2023/09/02 08:08:47;;;;;;;0.77;0.77;;;;;;;19.04;82.63;95811.94;4331457;32;20189;-65
2023/09/02 08:11:17;;;;;;;0.77;0.77;;;;;;;19.10;82.27;95821.38;4330861;32;20173;-65
2023/09/02 08:13:43;;;;;;;0.50;0.50;;;;;;;19.12;82.30;95816.44;4327950;32;20189;-65
2023/09/02 08:16:08;;;;;;;0.77;0.77;;;;;;;19.23;81.59;95822.16;4329629;32;20289;-65
2023/09/02 08:18:34;;;;;;;1.03;1.03;;;;;;;19.27;81.64;95819.59;4317289;32;20190;-65
2023/09/02 08:21:00;;;;;;;0.60;0.60;;;;;;;19.31;81.45;95823.19;4330810;32;20223;-65
2023/09/02 08:23:25;;;;;;;0.73;0.73;;;;;;;19.38;81.04;95823.38;4327424;32;20228;-65
2023/09/02 08:25:50;;;;;;;0.77;0.77;;;;;;;19.38;81.14;95821.47;4328093;32;20202;-65
2023/09/02 08:28:16;;;;;;;0.97;0.97;;;;;;;19.47;80.85;95829.44;4329778;32;20182;-65
2023/09/02 08:30:43;;;;;;;0.80;0.80;;;;;;;19.49;80.82;95829.91;4327222;32;20193;-65
2023/09/02 08:33:09;;;;;;;1.57;1.47;;;;;;;19.60;80.07;95820.25;4332373;32;20189;-65
2023/09/02 08:35:38;;;;;;;2.30;2.20;;;;;;;19.64;79.66;95823.84;4331171;32;20224;-65
2023/09/02 08:38:04;;;;;;;4.20;3.83;;;;;;;19.68;79.41;95832.03;4327321;32;20217;-65
2023/09/02 08:40:29;;;;;;;1.43;1.33;;;;;;;19.69;79.51;95829.00;4329562;32;20273;-65
2023/09/02 08:42:55;;;;;;;2.23;1.73;;;;;;;19.71;79.44;95828.69;4330624;32;20252;-65
2023/09/02 08:45:22;;;;;;;2.20;1.03;;;;;;;19.73;79.53;95832.59;4319660;32;20235;-65
2023/09/02 08:47:57;;;;;;;1.23;1.13;;;;;;;19.86;78.88;95833.34;4333325;32;20177;-65
2023/09/02 08:50:25;;;;;;;0.80;0.73;;;;;;;19.83;78.72;95836.72;4330783;32;20189;-65
2023/09/02 08:52:51;;;;;;;0.53;0.53;;;;;;;19.86;77.72;95836.06;4330975;32;20296;-65
2023/09/02 08:55:17;;;;;;;0.47;0.47;;;;;;;19.91;77.30;95835.81;4329085;32;20194;-65
2023/09/02 08:57:44;;;;;;;0.33;0.33;;;;;;;19.95;77.42;95841.31;4330503;32;20181;-65
2023/09/02 09:00:09;;;;;;;0.73;0.73;;;;;;;20.01;76.96;95843.41;4329173;32;20220;-65
2023/09/02 09:02:37;;;;;;;0.43;0.43;;;;;;;20.04;76.41;95850.03;4325115;32;20182;-65
2023/09/02 09:05:04;;;;;;;0.50;0.50;;;;;;;20.12;76.58;95857.22;4330864;32;20190;-65
2023/09/02 09:07:31;;;;;;;0.57;0.57;;;;;;;20.23;76.27;95856.38;4330656;32;20189;-65
2023/09/02 09:10:01;;;;;;;1.00;1.00;;;;;;;20.36;77.12;95857.16;4324201;32;20215;-65
2023/09/02 09:12:29;;;;;;;0.33;0.33;;;;;;;20.45;76.74;95846.22;4319723;32;20198;-65
2023/09/02 09:14:58;;;;;;;0.50;0.50;;;;;;;20.48;75.54;95851.72;4332385;32;20205;-65
2023/09/02 09:17:25;;;;;;;0.30;0.30;;;;;;;20.45;76.49;95849.72;4326836;32;20229;-65
2023/09/02 09:19:52;;;;;;;0.27;0.27;;;;;;;20.47;76.63;95854.75;4329294;32;20186;-65
2023/09/02 09:22:17;;;;;;;0.90;0.90;;;;;;;20.48;75.65;95851.72;4330001;32;20174;-65
2023/09/02 09:24:42;;;;;;;0.60;0.60;;;;;;;20.67;73.51;95848.38;4331952;32;20251;-65
2023/09/02 09:27:10;;;;;;;0.77;0.77;;;;;;;20.65;74.60;95842.56;4335153;32;20212;-65
2023/09/02 09:29:42;;;;;;;0.23;0.23;;;;;;;20.65;75.07;95845.25;4334022;32;20189;-65
2023/09/02 09:32:12;;;;;;;0.70;0.70;;;;;;;20.64;74.59;95850.97;4332978;32;20190;-65
2023/09/02 09:34:39;;;;;;;4.47;1.27;;;;;;;20.64;74.25;95850.97;4332252;32;20220;-64
2023/09/02 09:37:06;;;;;;;0.60;0.60;;;;;;;20.61;74.53;95852.44;4333202;32;20188;-65
2023/09/02 09:39:46;;;;;;;0.30;0.30;;;;;;;20.58;74.83;95848.53;4331862;32;20193;-65
2023/09/02 09:42:13;;;;;;;0.40;0.40;;;;;;;20.61;73.70;95848.97;4331387;32;20213;-65
2023/09/02 09:44:55;;;;;;;0.37;0.37;;;;;;;20.78;72.39;95851.38;4334802;32;20201;-65
2023/09/02 09:47:22;;;;;;;0.77;0.73;;;;;;;20.80;72.93;95849.09;4332737;32;20181;-65
2023/09/02 09:49:49;;;;;;;0.23;0.23;;;;;;;20.85;72.18;95846.16;4332743;32;20204;-65
2023/09/02 09:52:15;;;;;;;0.33;0.33;;;;;;;20.85;72.84;95843.47;4331410;32;20228;-65
2023/09/02 09:54:45;;;;;;;0.60;0.53;;;;;;;20.95;72.31;95853.75;4319042;32;20201;-65
2023/09/02 09:57:14;;;;;;;0.53;0.40;;;;;;;21.01;71.35;95840.75;4328784;32;20177;-65
2023/09/02 09:59:51;;;;;;;0.40;0.40;;;;;;;21.07;71.29;95844.78;4318823;32;20244;-65
2023/09/02 10:02:17;;;;;;;0.50;0.50;;;;;;;21.09;71.73;95842.53;4331344;32;20193;-64
2023/09/02 10:04:50;;;;;;;0.50;0.50;;;;;;;21.20;70.97;95843.59;4330909;32;20193;-65
2023/09/02 10:07:22;;;;;;;2.23;0.80;;;;;;;21.30;69.16;95840.37;4331551;32;20232;-65
2023/09/02 10:09:47;;;;;;;3.00;0.77;;;;;;;21.55;67.67;95844.47;4330577;32;20245;-65
2023/09/02 10:12:15;;;;;;;0.57;0.57;;;;;;;21.65;68.06;95848.53;4332730;32;20190;-65
2023/09/02 10:14:42;;;;;;;0.97;0.90;;;;;;;21.72;68.24;95837.13;4332352;32;20178;-65
2023/09/02 10:17:09;;;;;;;0.47;0.47;;;;;;;21.86;67.60;95838.22;4334486;32;20173;-65
2023/09/02 10:19:34;;;;;;;0.20;0.20;;;;;;;21.98;66.79;95833.84;4332420;32;20205;-65
2023/09/02 10:22:01;;;;;;;0.60;0.60;;;;;;;22.07;65.76;95842.53;4332697;32;20174;-65
2023/09/02 10:24:34;;;;;;;0.30;0.30;;;;;;;22.05;66.02;95837.47;4318723;32;20185;-65
2023/09/02 10:27:02;;;;;;;0.87;0.67;;;;;;;22.16;66.08;95837.72;4332531;32;20260;-65
2023/09/02 10:29:33;;;;;;;0.53;0.53;;;;;;;22.18;65.42;95840.84;4332632;32;20264;-65
2023/09/02 10:32:04;;;;;;;0.90;0.90;;;;;;;22.18;65.51;95840.84;4330869;32;20178;-65
2023/09/02 10:34:52;;;;;;;0.60;0.60;;;;;;;22.23;65.29;95846.78;4332308;32;20267;-65
2023/09/02 10:37:24;;;;;;;0.90;0.90;;;;;;;22.22;65.32;95839.00;4330230;32;20212;-65
2023/09/02 10:40:04;;;;;;;5.10;1.53;;;;;;;22.17;65.86;95833.88;4328774;32;20220;-65
2023/09/02 10:42:30;;;;;;;0.70;0.70;;;;;;;22.00;66.77;95832.37;4330621;32;20269;-65
2023/09/02 10:44:55;;;;;;;1.23;1.17;;;;;;;22.08;65.55;95833.28;4328430;32;20271;-65
2023/09/02 10:47:21;;;;;;;0.50;0.50;;;;;;;22.22;65.78;95834.38;4327778;32;20219;-65
2023/09/02 10:49:47;;;;;;;0.60;0.60;;;;;;;22.22;65.62;95833.59;4318762;32;20181;-65
2023/09/02 10:52:15;;;;;;;0.80;0.80;;;;;;;22.25;64.84;95832.87;4318572;32;20205;-65
2023/09/02 10:55:03;;;;;;;0.57;0.57;;;;;;;22.33;65.20;95829.19;4330728;32;20186;-65
2023/09/02 10:57:43;;;;;;;0.70;0.70;;;;;;;22.63;63.10;95832.87;4329253;32;20257;-65
2023/09/02 11:00:20;;;;;;;2.40;0.80;;;;;;;22.75;62.22;95829.22;4330984;32;20181;-65
2023/09/02 11:02:47;;;;;;;0.67;0.67;;;;;;;22.76;62.65;95830.00;4330587;32;20228;-65
2023/09/02 11:05:13;;;;;;;0.27;0.27;;;;;;;22.71;63.13;95830.28;4330382;32;20252;-65
2023/09/02 11:07:40;;;;;;;0.27;0.27;;;;;;;22.80;62.86;95828.19;4319945;32;20218;-65
2023/09/02 11:10:07;;;;;;;0.43;0.43;;;;;;;23.00;63.55;95835.12;4319100;32;20185;-65
2023/09/02 11:12:33;;;;;;;0.67;0.60;;;;;;;23.23;63.10;95844.03;4329994;32;20186;-65
2023/09/02 11:15:07;;;;;;;0.40;0.40;;;;;;;23.19;63.31;95848.59;4318053;32;20208;-65
2023/09/02 11:17:34;;;;;;;0.83;0.67;;;;;;;23.09;62.34;95843.75;4330601;32;20169;-65
2023/09/02 11:20:02;;;;;;;0.30;0.30;;;;;;;23.00;62.33;95837.03;4318377;32;20288;-65
2023/09/02 11:22:56;;;;;;;0.53;0.53;;;;;;;22.89;63.06;95834.13;4329424;32;20193;-65
2023/09/02 11:25:28;;;;;;;0.30;0.30;;;;;;;22.96;63.42;95834.25;4317770;32;20240;-65
2023/09/02 11:27:55;;;;;;;0.23;0.23;;;;;;;23.10;63.04;95839.91;4318018;32;20200;-65
2023/09/02 11:30:23;;;;;;;0.60;0.60;;;;;;;23.30;62.50;95838.72;4330416;32;20231;-65
2023/09/02 11:32:50;;;;;;;0.30;0.30;;;;;;;23.28;62.07;95830.16;4331234;32;20173;-65